createdAt,value
2019-05-26T00:00:49.719Z,0.00
2019-05-26T00:01:49.705Z,0.00
2019-05-26T00:02:49.696Z,0.00
2019-05-26T00:03:49.696Z,0.00
2019-05-26T00:04:49.670Z,0.00
2019-05-26T00:05:49.659Z,0.00
2019-05-26T00:06:49.651Z,0.00
2019-05-26T00:07:49.649Z,0.00
2019-05-26T00:08:49.852Z,0.00
2019-05-26T00:09:49.617Z,0.00
2019-05-26T00:10:49.608Z,0.00
2019-05-26T00:11:49.601Z,0.00
2019-05-26T00:12:49.587Z,0.00
2019-05-26T00:13:49.592Z,0.00
2019-05-26T00:14:49.575Z,0.00
2019-05-26T00:15:49.551Z,0.00
2019-05-26T00:16:49.540Z,0.00
2019-05-26T00:17:49.542Z,0.00
2019-05-26T00:18:49.534Z,0.00
2019-05-26T00:19:49.520Z,0.00
2019-05-26T00:20:49.497Z,0.00
2019-05-26T00:21:49.484Z,0.00
2019-05-26T00:22:49.473Z,0.00
2019-05-26T00:23:49.473Z,0.00
2019-05-26T00:24:49.457Z,0.00
2019-05-26T00:25:49.443Z,0.00
2019-05-26T00:26:49.430Z,0.00
2019-05-26T00:27:49.426Z,0.00
2019-05-26T00:28:49.418Z,0.00
2019-05-26T00:29:49.401Z,0.00
2019-05-26T00:30:49.732Z,0.00
2019-05-26T00:31:49.408Z,0.00
2019-05-26T00:32:49.402Z,0.00
2019-05-26T00:33:49.407Z,0.00
2019-05-26T00:34:49.399Z,0.00
2019-05-26T00:35:49.352Z,0.00
2019-05-26T00:36:49.333Z,0.00
2019-05-26T00:37:50.509Z,0.00
2019-05-26T00:38:49.322Z,0.00
2019-05-26T00:39:49.291Z,0.00
2019-05-26T00:40:49.285Z,0.00
2019-05-26T00:41:49.288Z,0.00
2019-05-26T00:42:49.256Z,0.00
2019-05-26T00:43:49.249Z,0.00
2019-05-26T00:44:49.242Z,0.00
2019-05-26T00:45:49.229Z,0.00
2019-05-26T00:46:49.220Z,0.00
2019-05-26T00:47:49.199Z,0.00
2019-05-26T00:48:49.205Z,0.00
2019-05-26T00:49:49.190Z,0.00
2019-05-26T00:50:49.186Z,0.00
2019-05-26T00:51:49.157Z,0.00
2019-05-26T00:52:49.147Z,0.00
2019-05-26T00:53:49.135Z,0.00
2019-05-26T00:54:49.134Z,0.00
2019-05-26T00:55:49.114Z,0.00
2019-05-26T00:56:49.127Z,0.00
2019-05-26T00:57:49.095Z,0.00
2019-05-26T00:58:49.086Z,0.00
2019-05-26T00:59:49.352Z,0.00
2019-05-26T01:00:49.062Z,0.00
2019-05-26T01:01:49.049Z,0.00
2019-05-26T01:02:49.040Z,0.00
2019-05-26T01:03:49.029Z,0.00
2019-05-26T01:04:49.028Z,0.00
2019-05-26T01:05:49.006Z,0.00
2019-05-26T01:06:49.082Z,0.00
2019-05-26T01:08:05.176Z,0.00
2019-05-26T01:08:49.982Z,0.00
2019-05-26T01:09:49.004Z,0.00
2019-05-26T01:10:48.953Z,0.00
2019-05-26T01:11:48.940Z,0.00
2019-05-26T01:12:48.930Z,0.00
2019-05-26T01:13:48.926Z,0.00
2019-05-26T01:14:48.931Z,0.00
2019-05-26T01:15:48.916Z,0.00
2019-05-26T01:16:48.889Z,0.00
2019-05-26T01:17:48.874Z,0.00
2019-05-26T01:18:48.865Z,0.00
2019-05-26T01:19:48.875Z,0.00
2019-05-26T01:20:48.853Z,0.00
2019-05-26T01:21:48.853Z,0.00
2019-05-26T01:22:48.822Z,0.00
2019-05-26T01:23:48.813Z,0.00
2019-05-26T01:24:48.825Z,0.00
2019-05-26T01:25:48.790Z,0.00
2019-05-26T01:26:48.786Z,0.00
2019-05-26T01:27:48.768Z,0.00
2019-05-26T01:28:48.822Z,0.00
2019-05-26T01:29:48.742Z,0.00
2019-05-26T01:30:48.738Z,0.00
2019-05-26T01:31:48.723Z,0.00
2019-05-26T01:32:48.726Z,0.00
2019-05-26T01:33:48.701Z,0.00
2019-05-26T01:34:48.690Z,0.00
2019-05-26T01:35:48.679Z,0.00
2019-05-26T01:36:48.672Z,0.00
2019-05-26T01:37:48.663Z,0.00
2019-05-26T01:38:48.646Z,0.00
2019-05-26T01:39:48.643Z,0.00
2019-05-26T01:40:48.629Z,0.00
2019-05-26T01:41:48.614Z,0.00
2019-05-26T01:42:48.607Z,0.00
2019-05-26T01:43:48.604Z,0.00
2019-05-26T01:44:48.607Z,0.00
2019-05-26T01:45:48.582Z,0.00
2019-05-26T01:46:48.559Z,0.00
2019-05-26T01:47:48.570Z,0.00
2019-05-26T01:48:48.576Z,0.00
2019-05-26T01:49:48.539Z,0.00
2019-05-26T01:50:48.647Z,0.00
2019-05-26T01:51:48.532Z,0.00
2019-05-26T01:52:48.492Z,0.00
2019-05-26T01:53:48.495Z,0.00
2019-05-26T01:54:48.474Z,0.00
2019-05-26T01:55:48.475Z,0.00
2019-05-26T01:56:48.448Z,0.00
2019-05-26T01:57:48.445Z,0.00
2019-05-26T01:58:48.432Z,0.00
2019-05-26T01:59:48.418Z,0.00
2019-05-26T02:00:48.706Z,0.00
2019-05-26T02:01:48.422Z,0.00
2019-05-26T02:02:48.389Z,0.00
2019-05-26T02:03:48.373Z,0.00
2019-05-26T02:04:48.361Z,0.00
2019-05-26T02:05:48.368Z,0.00
2019-05-26T02:06:48.353Z,0.00
2019-05-26T02:07:48.347Z,0.00
2019-05-26T02:08:48.327Z,0.00
2019-05-26T02:09:48.308Z,0.00
2019-05-26T02:10:48.307Z,0.00
2019-05-26T02:11:48.361Z,0.00
2019-05-26T02:12:48.342Z,0.00
2019-05-26T02:13:48.279Z,0.00
2019-05-26T02:14:48.259Z,0.00
2019-05-26T02:15:48.262Z,0.00
2019-05-26T02:16:48.238Z,0.00
2019-05-26T02:17:48.225Z,0.00
2019-05-26T02:18:48.218Z,0.00
2019-05-26T02:19:48.265Z,0.00
2019-05-26T02:20:48.197Z,0.00
2019-05-26T02:21:48.177Z,0.00
2019-05-26T02:22:48.173Z,0.00
2019-05-26T02:23:48.156Z,0.00
2019-05-26T02:24:48.149Z,0.00
2019-05-26T02:25:48.150Z,0.00
2019-05-26T02:26:48.121Z,0.00
2019-05-26T02:27:48.120Z,0.00
2019-05-26T02:28:48.104Z,0.00
2019-05-26T02:29:48.096Z,0.00
2019-05-26T02:30:48.190Z,0.00
2019-05-26T02:31:48.074Z,0.00
2019-05-26T02:32:48.063Z,0.00
2019-05-26T02:33:48.049Z,0.00
2019-05-26T02:34:48.046Z,0.00
2019-05-26T02:35:48.064Z,0.00
2019-05-26T02:36:48.017Z,0.00
2019-05-26T02:37:48.048Z,0.00
2019-05-26T02:39:01.089Z,0.00
2019-05-26T02:39:48.980Z,0.00
2019-05-26T02:40:47.981Z,0.00
2019-05-26T02:41:47.966Z,0.00
2019-05-26T02:42:47.957Z,0.00
2019-05-26T02:43:47.939Z,0.00
2019-05-26T02:44:47.927Z,0.00
2019-05-26T02:45:47.929Z,0.00
2019-05-26T02:46:47.908Z,0.00
2019-05-26T02:47:47.894Z,0.00
2019-05-26T02:48:47.903Z,0.00
2019-05-26T02:49:47.872Z,0.00
2019-05-26T02:50:47.868Z,0.00
2019-05-26T02:51:47.857Z,4.00
2019-05-26T02:52:47.862Z,4.00
2019-05-26T02:53:47.837Z,0.00
2019-05-26T02:54:47.819Z,0.00
2019-05-26T02:55:47.809Z,4.00
2019-05-26T02:56:47.805Z,4.00
2019-05-26T02:57:47.795Z,4.00
2019-05-26T02:58:47.780Z,4.00
2019-05-26T02:59:47.774Z,4.00
2019-05-26T03:00:47.755Z,4.00
2019-05-26T03:02:02.227Z,8.00
2019-05-26T03:02:48.751Z,4.00
2019-05-26T03:03:47.738Z,8.00
2019-05-26T03:04:47.715Z,8.00
2019-05-26T03:05:47.713Z,12.00
2019-05-26T03:06:47.701Z,8.00
2019-05-26T03:07:47.682Z,12.00
2019-05-26T03:08:47.678Z,12.00
2019-05-26T03:09:47.662Z,16.00
2019-05-26T03:10:47.712Z,16.00
2019-05-26T03:11:47.646Z,16.00
2019-05-26T03:12:47.625Z,20.00
2019-05-26T03:13:47.630Z,20.00
2019-05-26T03:14:47.622Z,20.00
2019-05-26T03:15:47.601Z,24.00
2019-05-26T03:16:47.587Z,28.00
2019-05-26T03:17:47.592Z,28.00
2019-05-26T03:18:47.570Z,32.00
2019-05-26T03:19:47.558Z,36.00
2019-05-26T03:20:47.536Z,36.00
2019-05-26T03:21:47.543Z,40.00
2019-05-26T03:22:47.527Z,44.00
2019-05-26T03:23:47.511Z,44.00
2019-05-26T03:24:47.501Z,48.00
2019-05-26T03:25:47.509Z,56.00
2019-05-26T03:26:47.486Z,60.00
2019-05-26T03:27:47.471Z,64.00
2019-05-26T03:28:47.456Z,68.00
2019-05-26T03:29:47.449Z,68.00
2019-05-26T03:30:47.434Z,72.00
2019-05-26T03:31:47.453Z,76.00
2019-05-26T03:32:47.420Z,80.00
2019-05-26T03:33:47.401Z,80.00
2019-05-26T03:34:47.383Z,88.00
2019-05-26T03:35:47.389Z,92.00
2019-05-26T03:36:47.376Z,96.00
2019-05-26T03:37:47.368Z,100.00
2019-05-26T03:38:47.339Z,108.00
2019-05-26T03:39:48.214Z,112.00
2019-05-26T03:40:47.339Z,120.00
2019-05-26T03:41:47.327Z,124.00
2019-05-26T03:42:47.310Z,132.00
2019-05-26T03:43:47.290Z,140.00
2019-05-26T03:44:47.278Z,140.00
2019-05-26T03:45:47.267Z,152.00
2019-05-26T03:46:47.362Z,152.00
2019-05-26T03:47:47.247Z,156.00
2019-05-26T03:48:47.253Z,160.00
2019-05-26T03:49:47.239Z,164.00
2019-05-26T03:50:47.212Z,172.00
2019-05-26T03:51:47.205Z,176.00
2019-05-26T03:52:47.194Z,184.00
2019-05-26T03:53:47.178Z,188.00
2019-05-26T03:54:47.168Z,188.00
2019-05-26T03:55:47.171Z,196.00
2019-05-26T03:56:47.151Z,200.00
2019-05-26T03:57:47.156Z,204.00
2019-05-26T03:58:47.123Z,216.00
2019-05-26T03:59:47.142Z,228.00
2019-05-26T04:00:47.107Z,244.00
2019-05-26T04:01:47.096Z,256.00
2019-05-26T04:02:47.087Z,264.00
2019-05-26T04:03:47.071Z,272.00
2019-05-26T04:04:47.057Z,268.00
2019-05-26T04:05:47.048Z,268.00
2019-05-26T04:06:47.076Z,276.00
2019-05-26T04:07:47.027Z,284.00
2019-05-26T04:08:47.041Z,292.00
2019-05-26T04:10:03.146Z,308.00
2019-05-26T04:10:48.020Z,324.00
2019-05-26T04:11:47.105Z,340.00
2019-05-26T04:12:46.980Z,336.00
2019-05-26T04:13:46.962Z,336.00
2019-05-26T04:14:46.968Z,332.00
2019-05-26T04:15:46.965Z,348.00
2019-05-26T04:16:46.932Z,356.00
2019-05-26T04:17:46.943Z,372.00
2019-05-26T04:18:46.911Z,384.00
2019-05-26T04:19:46.905Z,392.00
2019-05-26T04:20:46.918Z,396.00
2019-05-26T04:21:46.881Z,404.00
2019-05-26T04:22:46.878Z,420.00
2019-05-26T04:23:46.864Z,436.00
2019-05-26T04:24:46.846Z,432.00
2019-05-26T04:25:46.835Z,448.00
2019-05-26T04:26:46.824Z,448.00
2019-05-26T04:27:46.820Z,452.00
2019-05-26T04:28:46.813Z,484.00
2019-05-26T04:29:46.805Z,492.00
2019-05-26T04:30:46.824Z,496.00
2019-05-26T04:31:46.763Z,520.00
2019-05-26T04:32:46.778Z,532.00
2019-05-26T04:33:46.749Z,540.00
2019-05-26T04:34:46.772Z,532.00
2019-05-26T04:35:46.728Z,536.00
2019-05-26T04:36:46.719Z,548.00
2019-05-26T04:37:46.768Z,560.00
2019-05-26T04:38:46.695Z,556.00
2019-05-26T04:39:46.697Z,544.00
2019-05-26T04:40:46.670Z,548.00
2019-05-26T04:41:46.660Z,588.00
2019-05-26T04:42:46.668Z,616.00
2019-05-26T04:43:46.680Z,632.00
2019-05-26T04:44:46.650Z,628.00
2019-05-26T04:45:46.628Z,628.00
2019-05-26T04:46:46.607Z,636.00
2019-05-26T04:47:46.608Z,656.00
2019-05-26T04:48:46.589Z,668.00
2019-05-26T04:49:46.576Z,644.00
2019-05-26T04:50:46.574Z,644.00
2019-05-26T04:51:46.562Z,656.00
2019-05-26T04:53:04.629Z,676.00
2019-05-26T04:53:47.544Z,720.00
2019-05-26T04:54:46.522Z,728.00
2019-05-26T04:55:46.510Z,696.00
2019-05-26T04:56:46.511Z,672.00
2019-05-26T04:57:46.491Z,692.00
2019-05-26T04:58:46.486Z,700.00
2019-05-26T04:59:46.489Z,700.00
2019-05-26T05:00:46.477Z,708.00
2019-05-26T05:01:46.449Z,720.00
2019-05-26T05:02:46.433Z,740.00
2019-05-26T05:03:46.422Z,776.00
2019-05-26T05:04:46.405Z,812.00
2019-05-26T05:05:46.395Z,860.00
2019-05-26T05:06:46.473Z,916.00
2019-05-26T05:07:46.398Z,956.00
2019-05-26T05:08:46.373Z,972.00
2019-05-26T05:09:46.350Z,1000.00
2019-05-26T05:10:46.340Z,1032.00
2019-05-26T05:11:46.342Z,1076.00
2019-05-26T05:12:46.324Z,1068.00
2019-05-26T05:13:46.310Z,1068.00
2019-05-26T05:14:46.301Z,1096.00
2019-05-26T05:15:46.284Z,1124.00
2019-05-26T05:16:46.290Z,1136.00
2019-05-26T05:17:46.353Z,1164.00
2019-05-26T05:18:46.261Z,1200.00
2019-05-26T05:19:46.251Z,1236.00
2019-05-26T05:20:46.230Z,1276.00
2019-05-26T05:21:46.232Z,1244.00
2019-05-26T05:22:46.220Z,1240.00
2019-05-26T05:23:46.204Z,1268.00
2019-05-26T05:24:46.197Z,1292.00
2019-05-26T05:25:46.177Z,1280.00
2019-05-26T05:26:46.170Z,1276.00
2019-05-26T05:27:46.154Z,1296.00
2019-05-26T05:28:46.215Z,1340.00
2019-05-26T05:29:46.132Z,1344.00
2019-05-26T05:30:46.123Z,1404.00
2019-05-26T05:31:46.117Z,1444.00
2019-05-26T05:32:46.104Z,1364.00
2019-05-26T05:33:46.100Z,1328.00
2019-05-26T05:34:46.086Z,1344.00
2019-05-26T05:35:46.077Z,1360.00
2019-05-26T05:36:46.068Z,1352.00
2019-05-26T05:37:46.043Z,1316.00
2019-05-26T05:38:46.050Z,1336.00
2019-05-26T05:39:46.041Z,1352.00
2019-05-26T05:40:59.130Z,1396.00
2019-05-26T05:41:47.009Z,1496.00
2019-05-26T05:42:45.997Z,1560.00
2019-05-26T05:43:45.995Z,1548.00
2019-05-26T05:44:45.973Z,1428.00
2019-05-26T05:45:45.965Z,1336.00
2019-05-26T05:46:45.951Z,1284.00
2019-05-26T05:47:45.941Z,1296.00
2019-05-26T05:48:45.943Z,1340.00
2019-05-26T05:49:45.911Z,1376.00
2019-05-26T05:50:45.901Z,1360.00
2019-05-26T05:51:45.891Z,1328.00
2019-05-26T05:52:45.885Z,1288.00
2019-05-26T05:53:45.899Z,1332.00
2019-05-26T05:54:45.865Z,1452.00
2019-05-26T05:55:45.850Z,1508.00
2019-05-26T05:56:45.835Z,1572.00
2019-05-26T05:57:45.861Z,1732.00
2019-05-26T05:58:45.830Z,1832.00
2019-05-26T05:59:45.810Z,1776.00
2019-05-26T06:00:45.799Z,1704.00
2019-05-26T06:01:45.803Z,1672.00
2019-05-26T06:02:45.772Z,1660.00
2019-05-26T06:03:45.793Z,1616.00
2019-05-26T06:04:45.756Z,1688.00
2019-05-26T06:05:45.750Z,1708.00
2019-05-26T06:06:45.732Z,1732.00
2019-05-26T06:07:45.730Z,1640.00
2019-05-26T06:08:45.720Z,1588.00
2019-05-26T06:09:45.760Z,1672.00
2019-05-26T06:10:45.681Z,1792.00
2019-05-26T06:11:45.676Z,1988.00
2019-05-26T06:12:45.663Z,2056.00
2019-05-26T06:13:45.957Z,1996.00
2019-05-26T06:14:45.736Z,1952.00
2019-05-26T06:15:45.713Z,1884.00
2019-05-26T06:16:45.631Z,1852.00
2019-05-26T06:17:45.667Z,1868.00
2019-05-26T06:18:45.623Z,1880.00
2019-05-26T06:19:45.677Z,1920.00
2019-05-26T06:20:45.590Z,2060.00
2019-05-26T06:21:45.597Z,2204.00
2019-05-26T06:22:45.574Z,2156.00
2019-05-26T06:23:45.582Z,2172.00
2019-05-26T06:24:45.539Z,2212.00
2019-05-26T06:25:45.523Z,2216.00
2019-05-26T06:26:45.609Z,2300.00
2019-05-26T06:27:45.554Z,2384.00
2019-05-26T06:28:45.489Z,2364.00
2019-05-26T06:29:58.344Z,2352.00
2019-05-26T06:30:46.477Z,2460.00
2019-05-26T06:31:45.671Z,2440.00
2019-05-26T06:32:45.572Z,2400.00
2019-05-26T06:33:45.477Z,2456.00
2019-05-26T06:34:45.425Z,2580.00
2019-05-26T06:35:45.422Z,2680.00
2019-05-26T06:36:45.409Z,2792.00
2019-05-26T06:37:45.419Z,2556.00
2019-05-26T06:38:45.387Z,2500.00
2019-05-26T06:39:45.387Z,2488.00
2019-05-26T06:40:45.403Z,2456.00
2019-05-26T06:41:45.378Z,2440.00
2019-05-26T06:42:45.341Z,2624.00
2019-05-26T06:43:45.332Z,2616.00
2019-05-26T06:44:53.527Z,2840.00
2019-05-26T06:45:46.307Z,2676.00
2019-05-26T06:46:45.297Z,2596.00
2019-05-26T06:47:45.300Z,2500.00
2019-05-26T06:48:45.403Z,2424.00
2019-05-26T06:49:45.296Z,2192.00
2019-05-26T06:50:45.279Z,2040.00
2019-05-26T06:51:45.258Z,1860.00
2019-05-26T06:52:45.239Z,1992.00
2019-05-26T06:53:45.230Z,2052.00
2019-05-26T06:54:45.224Z,1980.00
2019-05-26T06:55:45.331Z,1992.00
2019-05-26T06:56:45.208Z,1908.00
2019-05-26T06:57:45.183Z,1832.00
2019-05-26T06:58:45.170Z,1728.00
2019-05-26T06:59:45.175Z,1596.00
2019-05-26T07:00:45.160Z,1780.00
2019-05-26T07:01:45.161Z,1924.00
2019-05-26T07:02:45.129Z,2216.00
2019-05-26T07:03:45.116Z,2184.00
2019-05-26T07:04:45.121Z,2272.00
2019-05-26T07:05:45.107Z,2252.00
2019-05-26T07:06:45.110Z,2196.00
2019-05-26T07:07:45.066Z,2280.00
2019-05-26T07:08:45.051Z,2240.00
2019-05-26T07:09:45.068Z,2192.00
2019-05-26T07:10:45.196Z,2124.00
2019-05-26T07:11:55.579Z,1932.00
2019-05-26T07:12:46.014Z,1904.00
2019-05-26T07:13:44.998Z,1972.00
2019-05-26T07:14:44.995Z,1992.00
2019-05-26T07:15:44.989Z,1844.00
2019-05-26T07:16:44.988Z,1628.00
2019-05-26T07:17:44.967Z,1740.00
2019-05-26T07:18:44.978Z,1676.00
2019-05-26T07:19:44.966Z,1880.00
2019-05-26T07:20:44.959Z,1856.00
2019-05-26T07:21:44.916Z,1916.00
2019-05-26T07:22:44.908Z,1928.00
2019-05-26T07:23:44.907Z,1980.00
2019-05-26T07:24:44.895Z,2064.00
2019-05-26T07:25:44.878Z,2168.00
2019-05-26T07:26:44.858Z,2348.00
2019-05-26T07:27:44.848Z,2548.00
2019-05-26T07:28:44.850Z,2680.00
2019-05-26T07:29:44.848Z,2628.00
2019-05-26T07:30:44.828Z,2544.00
2019-05-26T07:31:44.811Z,2516.00
2019-05-26T07:32:44.933Z,2504.00
2019-05-26T07:33:44.789Z,2660.00
2019-05-26T07:34:44.798Z,2856.00
2019-05-26T07:35:44.784Z,2992.00
2019-05-26T07:36:44.807Z,3216.00
2019-05-26T07:37:44.747Z,3356.00
2019-05-26T07:38:44.737Z,3440.00
2019-05-26T07:39:44.739Z,3604.00
2019-05-26T07:40:44.737Z,3688.00
2019-05-26T07:41:44.706Z,3708.00
2019-05-26T07:42:44.722Z,3824.00
2019-05-26T07:43:44.681Z,3976.00
2019-05-26T07:44:44.672Z,3908.00
2019-05-26T07:45:44.665Z,4200.00
2019-05-26T07:46:44.662Z,4188.00
2019-05-26T07:47:44.657Z,4108.00
2019-05-26T07:48:44.624Z,4068.00
2019-05-26T07:49:44.622Z,4012.00
2019-05-26T07:50:44.606Z,4208.00
2019-05-26T07:51:44.596Z,4056.00
2019-05-26T07:52:44.584Z,4084.00
2019-05-26T07:53:44.577Z,4032.00
2019-05-26T07:54:44.691Z,3868.00
2019-05-26T07:55:44.557Z,3932.00
2019-05-26T07:56:44.540Z,3668.00
2019-05-26T07:57:44.620Z,3544.00
2019-05-26T07:58:44.516Z,3504.00
2019-05-26T07:59:44.509Z,3428.00
2019-05-26T08:00:44.512Z,3264.00
2019-05-26T08:01:44.482Z,2860.00
2019-05-26T08:02:44.469Z,2652.00
2019-05-26T08:03:44.462Z,2508.00
2019-05-26T08:04:44.450Z,2432.00
2019-05-26T08:05:44.457Z,2384.00
2019-05-26T08:06:44.451Z,2368.00
2019-05-26T08:07:44.422Z,2440.00
2019-05-26T08:08:44.412Z,2632.00
2019-05-26T08:09:44.401Z,2884.00
2019-05-26T08:10:44.395Z,3020.00
2019-05-26T08:11:44.394Z,2996.00
2019-05-26T08:12:44.369Z,2972.00
2019-05-26T08:13:44.347Z,3144.00
2019-05-26T08:14:44.338Z,3480.00
2019-05-26T08:15:44.388Z,3456.00
2019-05-26T08:16:44.362Z,2292.00
2019-05-26T08:17:44.308Z,2300.00
2019-05-26T08:18:44.298Z,796.00
2019-05-26T08:19:44.290Z,2148.00
2019-05-26T08:20:44.309Z,1584.00
2019-05-26T08:21:44.258Z,1768.00
2019-05-26T08:22:44.257Z,1564.00
2019-05-26T08:23:44.370Z,1800.00
2019-05-26T08:24:44.224Z,1704.00
2019-05-26T08:25:44.230Z,1780.00
2019-05-26T08:26:44.211Z,1876.00
2019-05-26T08:27:44.246Z,1760.00
2019-05-26T08:28:44.193Z,1840.00
2019-05-26T08:29:44.171Z,1832.00
2019-05-26T08:30:44.180Z,1868.00
2019-05-26T08:31:44.178Z,1840.00
2019-05-26T08:32:44.149Z,1820.00
2019-05-26T08:33:44.139Z,1832.00
2019-05-26T08:34:45.577Z,2028.00
2019-05-26T08:35:44.152Z,1844.00
2019-05-26T08:36:44.100Z,1972.00
2019-05-26T08:37:44.085Z,1988.00
2019-05-26T08:38:44.105Z,2012.00
2019-05-26T08:39:48.004Z,2004.00
2019-05-26T08:40:44.077Z,2028.00
2019-05-26T08:41:44.046Z,2040.00
2019-05-26T08:42:44.840Z,2104.00
2019-05-26T08:43:44.033Z,2148.00
2019-05-26T08:44:44.024Z,2184.00
2019-05-26T08:45:44.029Z,2136.00
2019-05-26T08:46:44.005Z,1876.00
2019-05-26T08:47:43.980Z,2164.00
2019-05-26T08:48:43.971Z,2052.00
2019-05-26T08:49:43.964Z,2232.00
2019-05-26T08:50:43.946Z,2264.00
2019-05-26T08:51:43.945Z,2240.00
2019-05-26T08:52:44.024Z,1840.00
2019-05-26T08:53:43.933Z,968.00
2019-05-26T08:54:43.904Z,2244.00
2019-05-26T08:55:43.889Z,2280.00
2019-05-26T08:56:43.878Z,2280.00
2019-05-26T08:57:43.871Z,2272.00
2019-05-26T08:58:43.855Z,2252.00
2019-05-26T08:59:43.855Z,2236.00
2019-05-26T09:00:43.836Z,1452.00
2019-05-26T09:01:43.822Z,1672.00
2019-05-26T09:02:43.814Z,1932.00
2019-05-26T09:03:43.820Z,1524.00
2019-05-26T09:04:43.792Z,1008.00
2019-05-26T09:05:43.787Z,1148.00
2019-05-26T09:06:43.772Z,2644.00
2019-05-26T09:07:43.764Z,2604.00
2019-05-26T09:08:43.756Z,2592.00
2019-05-26T09:09:43.870Z,2616.00
2019-05-26T09:10:43.739Z,2580.00
2019-05-26T09:11:43.720Z,2500.00
2019-05-26T09:12:47.701Z,2548.00
2019-05-26T09:13:44.697Z,2612.00
2019-05-26T09:14:43.821Z,2664.00
2019-05-26T09:15:43.680Z,2748.00
2019-05-26T09:16:43.664Z,2768.00
2019-05-26T09:17:43.648Z,2828.00
2019-05-26T09:18:43.636Z,3060.00
2019-05-26T09:19:43.625Z,3068.00
2019-05-26T09:20:43.615Z,3236.00
2019-05-26T09:21:43.768Z,3320.00
2019-05-26T09:22:43.585Z,3444.00
2019-05-26T09:23:43.596Z,3556.00
2019-05-26T09:24:43.577Z,3572.00
2019-05-26T09:25:46.382Z,3632.00
2019-05-26T09:26:43.568Z,3624.00
2019-05-26T09:27:43.538Z,3676.00
2019-05-26T09:28:43.530Z,3660.00
2019-05-26T09:29:43.511Z,3624.00
2019-05-26T09:30:43.508Z,3668.00
2019-05-26T09:31:43.546Z,3752.00
2019-05-26T09:32:43.502Z,3840.00
2019-05-26T09:33:43.471Z,3916.00
2019-05-26T09:34:43.452Z,4292.00
2019-05-26T09:35:43.447Z,4216.00
2019-05-26T09:36:43.451Z,4096.00
2019-05-26T09:37:43.427Z,4132.00
2019-05-26T09:38:43.430Z,4188.00
2019-05-26T09:39:43.402Z,4484.00
2019-05-26T09:40:43.387Z,4348.00
2019-05-26T09:41:43.506Z,4308.00
2019-05-26T09:42:43.366Z,4016.00
2019-05-26T09:43:43.398Z,3108.00
2019-05-26T09:44:43.351Z,4172.00
2019-05-26T09:45:43.339Z,2880.00
2019-05-26T09:46:43.323Z,2028.00
2019-05-26T09:47:43.334Z,1596.00
2019-05-26T09:48:43.307Z,1428.00
2019-05-26T09:49:43.305Z,1356.00
2019-05-26T09:50:43.281Z,1452.00
2019-05-26T09:51:43.284Z,1684.00
2019-05-26T09:52:43.272Z,1612.00
2019-05-26T09:53:43.260Z,1508.00
2019-05-26T09:54:43.248Z,1516.00
2019-05-26T09:55:43.241Z,1552.00
2019-05-26T09:56:43.223Z,1528.00
2019-05-26T09:57:43.211Z,1516.00
2019-05-26T09:58:43.229Z,1576.00
2019-05-26T09:59:43.185Z,1680.00
2019-05-26T10:00:43.197Z,1764.00
2019-05-26T10:01:43.183Z,1780.00
2019-05-26T10:02:43.159Z,1732.00
2019-05-26T10:03:43.150Z,1612.00
2019-05-26T10:04:43.135Z,1420.00
2019-05-26T10:05:43.150Z,1296.00
2019-05-26T10:06:43.123Z,1200.00
2019-05-26T10:07:43.110Z,1096.00
2019-05-26T10:08:43.117Z,1012.00
2019-05-26T10:09:43.076Z,940.00
2019-05-26T10:10:43.069Z,880.00
2019-05-26T10:11:43.071Z,788.00
2019-05-26T10:12:43.152Z,724.00
2019-05-26T10:13:43.031Z,684.00
2019-05-26T10:14:43.030Z,648.00
2019-05-26T10:15:43.011Z,632.00
2019-05-26T10:16:43.035Z,616.00
2019-05-26T10:17:43.023Z,628.00
2019-05-26T10:18:43.006Z,676.00
2019-05-26T10:19:42.964Z,692.00
2019-05-26T10:20:42.975Z,712.00
2019-05-26T10:21:42.952Z,720.00
2019-05-26T10:22:42.987Z,732.00
2019-05-26T10:23:42.943Z,724.00
2019-05-26T10:24:42.933Z,736.00
2019-05-26T10:25:42.950Z,760.00
2019-05-26T10:26:42.890Z,792.00
2019-05-26T10:27:43.179Z,820.00
2019-05-26T10:28:42.871Z,844.00
2019-05-26T10:29:42.897Z,860.00
2019-05-26T10:30:42.883Z,884.00
2019-05-26T10:31:42.842Z,888.00
2019-05-26T10:32:42.838Z,916.00
2019-05-26T10:33:42.815Z,964.00
2019-05-26T10:34:42.912Z,1016.00
2019-05-26T10:35:42.808Z,1020.00
2019-05-26T10:36:42.824Z,1032.00
2019-05-26T10:37:42.805Z,1036.00
2019-05-26T10:38:42.754Z,1076.00
2019-05-26T10:39:45.051Z,1152.00
2019-05-26T10:40:42.778Z,1248.00
2019-05-26T10:41:42.765Z,1284.00
2019-05-26T10:42:42.709Z,1292.00
2019-05-26T10:43:47.475Z,1292.00
2019-05-26T10:44:43.782Z,1312.00
2019-05-26T10:45:42.682Z,1404.00
2019-05-26T10:46:42.672Z,1408.00
2019-05-26T10:47:42.670Z,1916.00
2019-05-26T10:48:42.670Z,1324.00
2019-05-26T10:49:42.635Z,1312.00
2019-05-26T10:50:42.625Z,1284.00
2019-05-26T10:51:42.615Z,1244.00
2019-05-26T10:52:42.662Z,1200.00
2019-05-26T10:53:42.649Z,1164.00
2019-05-26T10:54:42.616Z,1148.00
2019-05-26T10:55:42.574Z,1136.00
2019-05-26T10:56:42.779Z,1132.00
2019-05-26T10:57:42.564Z,1148.00
2019-05-26T10:58:42.552Z,1108.00
2019-05-26T10:59:42.520Z,1056.00
2019-05-26T11:00:42.519Z,1060.00
2019-05-26T11:01:42.779Z,1052.00
2019-05-26T11:02:42.484Z,1028.00
2019-05-26T11:03:42.536Z,1084.00
2019-05-26T11:04:42.497Z,1152.00
2019-05-26T11:05:42.455Z,1252.00
2019-05-26T11:06:42.455Z,1392.00
2019-05-26T11:07:42.694Z,1536.00
2019-05-26T11:08:42.447Z,1796.00
2019-05-26T11:09:42.430Z,2096.00
2019-05-26T11:10:42.411Z,2516.00
2019-05-26T11:11:42.416Z,3020.00
2019-05-26T11:12:42.372Z,3568.00
2019-05-26T11:13:42.401Z,4200.00
2019-05-26T11:14:42.363Z,4976.00
2019-05-26T11:15:42.408Z,3760.00
2019-05-26T11:16:42.330Z,3568.00
2019-05-26T11:17:42.318Z,3428.00
2019-05-26T11:18:42.332Z,3252.00
2019-05-26T11:19:42.295Z,3508.00
2019-05-26T11:20:42.315Z,4936.00
2019-05-26T11:21:42.278Z,3580.00
2019-05-26T11:22:42.286Z,3380.00
2019-05-26T11:23:42.266Z,3640.00
2019-05-26T11:24:42.247Z,4704.00
2019-05-26T11:25:42.303Z,2696.00
2019-05-26T11:26:42.213Z,2360.00
2019-05-26T11:27:42.224Z,2176.00
2019-05-26T11:28:42.276Z,1992.00
2019-05-26T11:29:42.188Z,1924.00
2019-05-26T11:30:42.173Z,1924.00
2019-05-26T11:31:42.172Z,1900.00
2019-05-26T11:32:42.183Z,1852.00
2019-05-26T11:33:42.198Z,1852.00
2019-05-26T11:34:42.223Z,1860.00
2019-05-26T11:35:42.175Z,1620.00
2019-05-26T11:36:42.150Z,1580.00
2019-05-26T11:37:42.112Z,1588.00
2019-05-26T11:38:42.100Z,1572.00
2019-05-26T11:39:42.156Z,1544.00
2019-05-26T11:40:42.689Z,1544.00
2019-05-26T11:41:42.057Z,1292.00
2019-05-26T11:42:44.830Z,1332.00
2019-05-26T11:43:42.401Z,1472.00
2019-05-26T11:44:42.018Z,1616.00
2019-05-26T11:45:42.010Z,1848.00
2019-05-26T11:46:41.998Z,2056.00
2019-05-26T11:47:42.117Z,2380.00
2019-05-26T11:48:41.994Z,2624.00
2019-05-26T11:49:41.961Z,2840.00
2019-05-26T11:50:41.952Z,2660.00
2019-05-26T11:51:41.939Z,3336.00
2019-05-26T11:52:41.922Z,3008.00
2019-05-26T11:53:41.938Z,2872.00
2019-05-26T11:54:41.910Z,2976.00
2019-05-26T11:55:41.896Z,3104.00
2019-05-26T11:56:41.903Z,3136.00
2019-05-26T11:57:41.872Z,3720.00
2019-05-26T11:58:41.885Z,3060.00
2019-05-26T11:59:41.858Z,3156.00
2019-05-26T12:00:41.851Z,3316.00
2019-05-26T12:01:41.833Z,4584.00
2019-05-26T12:02:41.818Z,4568.00
2019-05-26T12:03:41.832Z,4464.00
2019-05-26T12:04:41.863Z,4300.00
2019-05-26T12:05:41.779Z,4116.00
2019-05-26T12:06:41.835Z,3932.00
2019-05-26T12:07:41.779Z,3908.00
2019-05-26T12:08:41.779Z,3988.00
2019-05-26T12:09:41.997Z,3956.00
2019-05-26T12:10:41.723Z,3736.00
2019-05-26T12:11:41.720Z,2776.00
2019-05-26T12:12:41.707Z,2736.00
2019-05-26T12:13:41.734Z,2732.00
2019-05-26T12:14:41.683Z,2468.00
2019-05-26T12:15:41.676Z,2760.00
2019-05-26T12:16:41.673Z,2780.00
2019-05-26T12:17:41.657Z,2820.00
2019-05-26T12:18:41.681Z,2888.00
2019-05-26T12:19:41.633Z,2148.00
2019-05-26T12:20:41.630Z,1988.00
2019-05-26T12:21:41.606Z,2452.00
2019-05-26T12:22:41.762Z,2424.00
2019-05-26T12:23:41.604Z,2432.00
2019-05-26T12:24:41.583Z,2408.00
2019-05-26T12:25:41.577Z,2400.00
2019-05-26T12:26:41.554Z,1976.00
2019-05-26T12:27:41.536Z,2440.00
2019-05-26T12:28:41.544Z,2360.00